Airfield :
LOGIN :

Register | Disclaimer

   EN    FR    IT 

 










Legend :    VFR   Marginal VFR   IFR   Intensive IFR   Very Intensive IFR
Visi :
Ceiling :
>= 8 km
>= 3000ft
5 to 8 km
1000 to 3000 ft
1500m to 5 km
500 to 1000 ft
800 to 1500m
200 to 500 ft
< 800m
< 200 ft
Symbols :   Thunderstorms  Fog  Heavy snow  Heavy precipitations  Wind > 20 kt
SIGMETs :     Misc.  Thunderstorms  Icing  Turbulence  Mountain Waves  Volcanic Ashes






- Airport Elevation : 425 ft
- IATA code : DTM


EDLW - Dortmund

CURRENT METAR :
  • 141650Z 00000KT 9000 FEW022 16/14 Q1014

EXPIRED METARs :
  • 141620Z 32003KT 250V030 CAVOK 16/14 Q1014
  • 141550Z VRB04KT 9999 FEW012 17/14 Q1014
  • 141520Z 31005KT 260V010 9999 -SHRA FEW012 SCT017 16/14 Q1014
  • 141450Z VRB04KT 9999 VCSH SCT014 BKN047 17/13 Q1014
  • 141420Z 29005KT 240V330 9999 FEW037 20/11 Q1014

TAF TAF EDLW
Valid from the 14 at 12:00 until the 15 at 12:00 UTC


141100Z 1412/1512 29006KT CAVOK
BECMG 1417/1420 VRB03KT
BECMG 1500/1503 BKN008
TEMPO 1503/1507 3500 -RADZ BKN004
BECMG 1507/1510 31005KT BKN020



MET'MAP, your aeronautical weather chart ! - Copyright ORBIFLY December 2007 - Disclaimer

ORBIFLY MET'MAP TEAM :

Programming & Development : Alexandra Zaïnal
Concept & original design : Baudouin d'Aumeries
Assistance for programming : Marc-Olivier Méhu
Technical & hardware support : Manuel Goepfert

Contact : metmap@orbifly.com




SOURCES & CREDITS :

   NOAA